Time;durP1;ratioP1;P1;durP2;ratioP2;P2;SDS_P1;SDS_P2;PMS_P1;PMS_P2;Temp;Humidity;BMP_temperature;BMP_pressure;BME280_temperature;BME280_humidity;BME280_pressure;Samples;Min_cycle;Max_cycle;Signal;HPM_P1;HPM_P2
2022/01/04 00:01:22;;;;;;;7.50;3.12;;;;;;;6.56;80.36;97283.69;1733311;82;21008;-56
2022/01/04 00:03:48;;;;;;;4.05;1.82;;;;;;;6.50;81.34;97274.29;1737115;82;20913;-56
2022/01/04 00:06:14;;;;;;;5.95;2.80;;;;;;;6.52;80.57;97269.17;1732719;82;21046;-56
2022/01/04 00:08:41;;;;;;;4.87;2.22;;;;;;;6.50;81.48;97271.60;1736728;82;39887;-56
2022/01/04 00:11:19;;;;;;;7.50;3.47;;;;;;;6.49;80.83;97267.80;1736784;82;20877;-56
2022/01/04 00:13:44;;;;;;;7.80;3.20;;;;;;;6.49;80.88;97269.98;1734930;82;20993;-59
2022/01/04 00:16:13;;;;;;;7.42;2.92;;;;;;;6.49;81.16;97265.95;1709486;82;21007;-59
2022/01/04 00:18:40;;;;;;;3.50;1.95;;;;;;;6.48;81.47;97266.20;1712769;82;21415;-59
2022/01/04 00:21:06;;;;;;;4.22;2.65;;;;;;;6.48;81.09;97267.55;1712204;82;21151;-59
2022/01/04 00:23:32;;;;;;;7.15;1.90;;;;;;;6.47;81.52;97265.39;1712412;83;21052;-59
2022/01/04 00:25:58;;;;;;;4.47;2.40;;;;;;;6.47;81.71;97257.32;1712384;82;21565;-59
2022/01/04 00:28:25;;;;;;;4.72;2.62;;;;;;;6.46;81.47;97263.78;1712502;82;21078;-59
2022/01/04 00:30:51;;;;;;;4.83;2.22;;;;;;;6.46;81.89;97258.41;1712368;82;21019;-58
2022/01/04 00:33:17;;;;;;;5.10;2.72;;;;;;;6.47;82.10;97248.44;1736409;82;22251;-59
2022/01/04 00:35:44;;;;;;;6.45;4.15;;;;;;;6.47;81.98;97249.25;1734809;82;21001;-59
2022/01/04 00:38:10;;;;;;;7.55;4.17;;;;;;;6.46;82.20;97248.17;1712530;82;21006;-59
2022/01/04 00:40:36;;;;;;;5.62;3.85;;;;;;;6.46;81.95;97248.17;1712475;82;21066;-59
2022/01/04 00:43:03;;;;;;;4.83;2.45;;;;;;;6.45;82.21;97243.34;1712766;82;20939;-59
2022/01/04 00:45:35;;;;;;;5.47;2.90;;;;;;;6.45;82.34;97240.64;1715579;82;21444;-56
2022/01/04 00:50:28;;;;;;;5.90;3.40;;;;;;;6.44;82.11;97238.23;1764201;80;20920;-56
2022/01/04 00:52:54;;;;;;;7.22;3.08;;;;;;;6.44;82.36;97239.58;1737176;82;21001;-57
2022/01/04 00:55:20;;;;;;;5.17;2.25;;;;;;;6.42;82.25;97237.70;1736765;82;21469;-56
2022/01/04 00:57:45;;;;;;;8.98;4.12;;;;;;;6.43;82.46;97234.73;1737087;82;21555;-56
2022/01/04 01:00:13;;;;;;;3.65;2.10;;;;;;;6.43;82.38;97233.93;1736516;82;21606;-56
2022/01/04 01:02:39;;;;;;;3.27;2.60;;;;;;;6.39;82.50;97227.46;1716856;82;21058;-56
2022/01/04 01:05:06;;;;;;;7.62;3.47;;;;;;;6.40;82.35;97223.69;1712468;83;20887;-56
2022/01/04 01:07:34;;;;;;;4.22;2.25;;;;;;;6.37;82.43;97221.01;1728790;82;20993;-57
2022/01/04 01:12:45;;;;;;;5.50;3.35;;;;;;;6.33;82.59;97210.53;1737041;82;21433;-59
2022/01/04 01:15:11;;;;;;;7.12;4.30;;;;;;;6.34;82.81;97209.45;1717762;82;20980;-57
2022/01/04 01:17:37;;;;;;;6.42;4.37;;;;;;;6.27;82.61;97206.23;1737198;82;21586;-57
2022/01/04 01:20:05;;;;;;;8.13;4.37;;;;;;;6.26;82.62;97199.23;1737167;82;20865;-56
2022/01/04 01:22:30;;;;;;;7.37;3.20;;;;;;;6.26;82.60;97193.05;1737371;82;21808;-56
2022/01/04 01:24:56;;;;;;;6.25;3.45;;;;;;;6.27;82.82;97192.78;1737002;82;20878;-57
2022/01/04 01:27:22;;;;;;;7.80;4.92;;;;;;;6.27;82.84;97186.59;1722979;82;20954;-56
2022/01/04 01:29:48;;;;;;;10.63;8.38;;;;;;;6.25;83.15;97184.19;1712593;83;20852;-57
2022/01/04 01:32:14;;;;;;;12.88;10.65;;;;;;;6.22;83.35;97182.02;1712977;82;20867;-56
2022/01/04 01:34:41;;;;;;;5.90;3.80;;;;;;;6.19;83.19;97179.34;1712497;83;21519;-56
2022/01/04 01:37:07;;;;;;;3.40;2.20;;;;;;;6.16;84.06;97178.55;1712638;82;20999;-57
2022/01/04 01:39:33;;;;;;;6.47;3.62;;;;;;;6.13;83.68;97175.03;1712679;82;20975;-57
2022/01/04 01:41:59;;;;;;;5.35;2.33;;;;;;;6.12;83.61;97170.73;1712655;82;20935;-57
2022/01/04 01:44:25;;;;;;;9.18;3.52;;;;;;;6.09;83.47;97166.45;1712684;83;21337;-57
2022/01/04 01:46:52;;;;;;;3.90;2.98;;;;;;;6.09;83.62;97167.25;1729913;82;21487;-57
2022/01/04 01:49:17;;;;;;;12.15;5.97;;;;;;;6.08;84.13;97171.02;1711051;82;21027;-57
2022/01/04 01:51:44;;;;;;;6.95;4.08;;;;;;;6.07;84.98;97164.58;1704242;80;21460;-57
2022/01/04 01:54:10;;;;;;;7.80;4.40;;;;;;;6.03;84.34;97157.57;1687530;84;21035;-56
2022/01/04 01:56:36;;;;;;;9.20;5.47;;;;;;;5.99;87.81;97147.64;1713036;82;21606;-56
2022/01/04 01:59:02;;;;;;;8.85;4.80;;;;;;;5.94;87.26;97141.72;1707891;83;21307;-56
2022/01/04 02:01:28;;;;;;;7.50;3.35;;;;;;;5.88;89.50;97137.38;1698284;82;20916;-57
2022/01/04 02:03:53;;;;;;;8.00;3.20;;;;;;;5.85;86.34;97132.02;1702565;82;20977;-57
2022/01/04 02:06:21;;;;;;;6.33;4.70;;;;;;;5.79;87.45;97130.94;1723159;82;20873;-57
2022/01/04 02:08:47;;;;;;;8.68;4.90;;;;;;;5.73;89.33;97121.29;1728310;82;21020;-57
2022/01/04 02:11:13;;;;;;;8.30;5.17;;;;;;;5.71;87.80;97122.88;1713772;82;21459;-57
2022/01/04 02:13:39;;;;;;;3.92;3.10;;;;;;;5.67;86.84;97115.10;1737344;82;20924;-56
2022/01/04 02:16:09;;;;;;;3.35;2.33;;;;;;;5.63;88.86;97112.66;1732665;82;21427;-56
2022/01/04 02:18:35;;;;;;;3.55;1.67;;;;;;;5.60;90.47;97110.53;1736829;82;21016;-59
2022/01/04 02:21:01;;;;;;;2.52;1.87;;;;;;;5.56;90.36;97107.59;1736974;82;20981;-59
2022/01/04 02:23:27;;;;;;;3.92;1.57;;;;;;;5.55;88.85;97104.60;1737316;82;21534;-59
2022/01/04 02:25:53;;;;;;;2.40;1.32;;;;;;;5.52;88.81;97097.09;1733000;82;21002;-56
2022/01/04 02:28:20;;;;;;;2.15;1.52;;;;;;;5.48;87.85;97093.34;1712741;82;20899;-57
2022/01/04 02:30:49;;;;;;;2.77;1.77;;;;;;;5.44;89.40;97086.88;1718585;82;21020;-59
2022/01/04 02:33:15;;;;;;;4.28;1.70;;;;;;;5.44;89.40;97083.39;1713977;82;21015;-59
2022/01/04 02:35:41;;;;;;;8.10;3.50;;;;;;;5.46;88.12;97086.06;1717661;82;22117;-59
2022/01/04 02:38:07;;;;;;;9.93;6.25;;;;;;;5.46;87.91;97081.23;1737047;82;20869;-57
2022/01/04 02:40:33;;;;;;;11.43;6.87;;;;;;;5.46;87.94;97084.72;1733110;82;21387;-57
2022/01/04 02:42:59;;;;;;;5.85;3.00;;;;;;;5.42;90.35;97080.17;1712780;82;20863;-57
2022/01/04 02:45:25;;;;;;;2.67;1.75;;;;;;;5.41;88.87;97074.53;1712636;82;21377;-57
2022/01/04 02:47:51;;;;;;;3.15;1.87;;;;;;;5.34;88.39;97068.08;1723480;82;22008;-57
2022/01/04 02:50:17;;;;;;;2.33;1.72;;;;;;;5.30;88.95;97070.51;1707654;82;21068;-57
2022/01/04 02:52:43;;;;;;;7.40;4.40;;;;;;;5.30;89.80;97068.36;1712809;82;21541;-57
2022/01/04 02:55:13;;;;;;;5.42;4.25;;;;;;;5.25;89.42;97061.09;1712414;82;20848;-56
2022/01/04 02:57:39;;;;;;;3.80;2.37;;;;;;;5.24;89.16;97058.14;1730099;82;20990;-59
2022/01/04 03:00:08;;;;;;;6.50;4.87;;;;;;;5.22;89.58;97055.47;1737106;82;21847;-59
2022/01/04 03:02:35;;;;;;;5.05;3.17;;;;;;;5.15;89.85;97052.23;1712781;82;21581;-59
2022/01/04 03:05:01;;;;;;;9.50;6.55;;;;;;;5.12;90.48;97050.06;1712509;83;21015;-59
2022/01/04 03:07:27;;;;;;;18.85;9.35;;;;;;;5.14;90.44;97041.23;1727939;82;21060;-59
2022/01/04 03:09:53;;;;;;;5.17;4.33;;;;;;;5.11;90.76;97037.18;1714553;82;20901;-59
2022/01/04 03:12:20;;;;;;;10.78;5.62;;;;;;;5.05;92.05;97032.36;1727429;82;21439;-59
2022/01/04 03:14:46;;;;;;;14.55;8.25;;;;;;;5.07;90.62;97042.83;1736974;82;21410;-59
2022/01/04 03:17:12;;;;;;;12.35;6.85;;;;;;;5.05;90.66;97042.30;1719940;82;20883;-58
2022/01/04 03:19:38;;;;;;;10.85;6.87;;;;;;;5.05;90.66;97042.30;1712622;83;20930;-59
2022/01/04 03:22:04;;;;;;;9.80;5.90;;;;;;;5.06;90.39;97029.14;1715977;82;20887;-59
2022/01/04 03:24:30;;;;;;;18.00;10.30;;;;;;;5.03;92.98;97021.59;1712609;83;22269;-58
2022/01/04 03:26:56;;;;;;;8.30;5.47;;;;;;;5.04;91.97;97017.84;1712596;82;20959;-58
2022/01/04 03:29:22;;;;;;;6.05;3.95;;;;;;;5.04;92.86;97011.13;1712809;83;20927;-58
2022/01/04 03:31:48;;;;;;;12.55;3.10;;;;;;;5.04;91.65;97010.62;1712533;82;20919;-59
2022/01/04 03:34:14;;;;;;;5.40;3.70;;;;;;;5.02;90.91;97011.40;1712369;83;20975;-59
2022/01/04 03:36:40;;;;;;;8.90;5.65;;;;;;;5.00;93.01;97012.20;1719703;82;21057;-58
2022/01/04 03:39:07;;;;;;;8.75;5.87;;;;;;;5.04;91.42;97016.49;1736612;82;20989;-59
2022/01/04 03:41:38;;;;;;;9.13;5.05;;;;;;;5.08;90.98;97007.65;1722711;82;21001;-58
2022/01/04 03:44:05;;;;;;;8.35;5.70;;;;;;;5.10;91.77;97008.72;1712728;82;21015;-57
2022/01/04 03:46:31;;;;;;;12.05;7.28;;;;;;;5.13;90.85;97004.17;1715650;82;21002;-56
2022/01/04 03:48:57;;;;;;;13.55;7.72;;;;;;;5.17;90.78;97010.59;1758097;80;21462;-56
2022/01/04 03:51:23;;;;;;;11.03;7.78;;;;;;;5.20;90.65;97001.19;1741910;80;21631;-56
2022/01/04 03:53:49;;;;;;;11.33;6.83;;;;;;;5.23;90.75;96996.64;1712745;83;20851;-56
2022/01/04 03:56:15;;;;;;;11.57;8.15;;;;;;;5.23;90.54;96992.08;1723192;82;21272;-56
2022/01/04 03:58:41;;;;;;;11.80;7.58;;;;;;;5.24;90.52;96995.56;1737178;82;20890;-56
2022/01/04 04:01:07;;;;;;;16.60;9.58;;;;;;;5.27;90.29;96987.76;1736835;82;21521;-56
2022/01/04 04:03:32;;;;;;;13.50;9.85;;;;;;;5.30;90.27;96985.89;1737123;82;20873;-56
2022/01/04 04:05:59;;;;;;;12.25;9.38;;;;;;;5.31;91.56;96986.70;1736985;82;20953;-57
2022/01/04 04:08:25;;;;;;;12.88;9.73;;;;;;;5.29;90.89;96970.02;1737387;80;21086;-56
2022/01/04 04:10:50;;;;;;;16.42;10.00;;;;;;;5.36;90.62;96975.39;1732875;82;20858;-56
2022/01/04 04:13:16;;;;;;;18.60;11.45;;;;;;;5.41;90.39;96971.09;1736985;82;21562;-56
2022/01/04 04:15:43;;;;;;;12.03;8.25;;;;;;;5.42;90.35;96970.82;1736686;82;20960;-56
2022/01/04 04:18:09;;;;;;;12.35;7.95;;;;;;;5.42;90.34;96967.33;1737343;82;21083;-56
2022/01/04 04:20:37;;;;;;;14.28;8.75;;;;;;;5.45;90.36;96966.77;1737184;82;21269;-56
2022/01/04 04:23:04;;;;;;;13.08;8.78;;;;;;;5.47;90.87;96971.33;1737135;82;21434;-56
2022/01/04 04:25:30;;;;;;;18.98;9.53;;;;;;;5.50;91.34;96976.98;1736974;82;21543;-56
2022/01/04 04:27:56;;;;;;;19.75;12.60;;;;;;;5.50;90.80;96978.33;1737251;82;21009;-56
2022/01/04 04:30:22;;;;;;;16.90;9.23;;;;;;;5.53;90.79;96973.74;1736974;82;20916;-56
2022/01/04 04:32:48;;;;;;;12.10;8.55;;;;;;;5.53;90.57;96972.94;1737358;82;20933;-56
2022/01/04 04:35:15;;;;;;;17.77;11.93;;;;;;;5.54;91.38;96960.56;1737031;82;21051;-57
2022/01/04 04:37:41;;;;;;;27.45;18.35;;;;;;;5.57;91.39;96968.11;1737298;82;21424;-56
2022/01/04 04:40:08;;;;;;;24.02;14.78;;;;;;;5.56;91.15;96967.04;1737267;82;21413;-56
2022/01/04 04:42:34;;;;;;;17.42;11.43;;;;;;;5.60;90.94;96964.06;1737150;82;21525;-56
2022/01/04 04:45:01;;;;;;;14.40;9.68;;;;;;;5.62;91.12;96964.58;1737246;82;20984;-56
2022/01/04 04:47:26;;;;;;;14.90;7.42;;;;;;;5.61;91.76;96958.95;1725977;82;21060;-56
2022/01/04 04:49:55;;;;;;;15.20;9.85;;;;;;;5.62;92.01;96964.05;1707525;84;21614;-56
2022/01/04 04:52:21;;;;;;;19.67;11.20;;;;;;;5.61;92.69;96959.75;1734545;82;21012;-56
2022/01/04 04:54:47;;;;;;;38.53;23.90;;;;;;;5.60;92.37;96957.34;1737230;82;21063;-56
2022/01/04 04:57:13;;;;;;;36.05;22.65;;;;;;;5.60;91.64;96951.42;1716503;82;20868;-56
2022/01/04 04:59:39;;;;;;;34.15;21.55;;;;;;;5.60;92.34;96944.70;1712891;83;20892;-56
2022/01/04 05:02:07;;;;;;;35.17;20.60;;;;;;;5.61;91.52;96942.28;1712851;82;21684;-56
2022/01/04 05:04:33;;;;;;;54.18;31.10;;;;;;;5.61;92.57;96940.94;1712750;82;21045;-56
2022/01/04 05:06:59;;;;;;;60.43;37.17;;;;;;;5.59;92.50;96944.44;1716139;82;21402;-56
2022/01/04 05:09:25;;;;;;;39.60;26.55;;;;;;;5.59;91.48;96943.64;1724572;80;20877;-56
2022/01/04 05:11:51;;;;;;;54.77;32.80;;;;;;;5.55;92.80;96946.05;1713817;82;21502;-56
2022/01/04 05:14:17;;;;;;;30.88;17.87;;;;;;;5.57;91.83;96942.58;1712690;83;21392;-57
2022/01/04 05:16:42;;;;;;;33.55;19.70;;;;;;;5.56;91.87;96948.23;1712296;82;21648;-57
2022/01/04 05:19:08;;;;;;;32.93;17.32;;;;;;;5.55;91.72;96947.39;1712797;83;20935;-56
2022/01/04 05:21:34;;;;;;;40.67;20.85;;;;;;;5.56;91.66;96937.48;1712528;82;20871;-57
2022/01/04 05:24:00;;;;;;;38.17;21.27;;;;;;;5.55;91.62;96934.50;1712704;83;20970;-56
2022/01/04 05:26:26;;;;;;;45.73;25.45;;;;;;;5.52;91.31;96933.71;1725255;82;22114;-56
2022/01/04 05:28:52;;;;;;;41.25;22.25;;;;;;;5.49;91.61;96931.05;1737185;82;20930;-56
2022/01/04 05:31:18;;;;;;;27.58;17.48;;;;;;;5.49;91.28;96933.73;1737133;82;21555;-56
2022/01/04 05:33:44;;;;;;;24.55;14.50;;;;;;;5.50;91.15;96928.62;1737320;82;20834;-56
2022/01/04 05:36:10;;;;;;;19.48;12.07;;;;;;;5.51;91.39;96930.22;1737152;82;21626;-56
2022/01/04 05:38:35;;;;;;;24.45;12.13;;;;;;;5.52;91.42;96932.38;1737290;82;21539;-57
2022/01/04 05:41:01;;;;;;;17.23;10.18;;;;;;;5.50;91.40;96929.16;1732691;82;20951;-56
2022/01/04 05:43:27;;;;;;;15.03;9.90;;;;;;;5.42;91.55;96911.71;1737309;82;20960;-56
2022/01/04 05:45:53;;;;;;;22.70;12.18;;;;;;;5.42;91.55;96911.71;1736995;82;20889;-56
2022/01/04 05:48:20;;;;;;;20.43;11.65;;;;;;;5.43;91.46;96917.34;1722761;82;20857;-55
2022/01/04 05:50:49;;;;;;;13.70;9.83;;;;;;;5.41;91.40;96920.85;1708719;82;21527;-56
2022/01/04 05:53:15;;;;;;;15.30;11.80;;;;;;;5.39;91.60;96908.23;1714509;82;21028;-59
2022/01/04 05:55:41;;;;;;;20.52;12.13;;;;;;;5.38;91.64;96904.75;1727466;82;20869;-59
2022/01/04 05:58:07;;;;;;;17.23;12.90;;;;;;;5.37;91.50;96907.14;1720457;82;20916;-59
2022/01/04 06:00:33;;;;;;;19.10;13.22;;;;;;;5.36;91.56;96906.08;1729524;82;20864;-59
2022/01/04 06:03:00;;;;;;;25.17;16.75;;;;;;;5.32;91.75;96887.03;1712628;82;21647;-59
2022/01/04 06:05:30;;;;;;;19.30;13.72;;;;;;;5.29;91.76;96891.58;1708081;82;21020;-59
2022/01/04 06:07:56;;;;;;;29.30;16.35;;;;;;;5.27;91.91;96889.72;1712296;82;21078;-59
2022/01/04 06:10:22;;;;;;;22.70;15.63;;;;;;;5.29;91.78;96884.06;1717639;81;22092;-59
2022/01/04 06:15:17;;;;;;;35.68;18.02;;;;;;;5.25;91.75;96887.84;1725465;82;21698;-59
2022/01/04 06:17:48;;;;;;;58.20;28.52;;;;;;;5.20;91.54;96881.13;1710713;82;21003;-59
2022/01/04 06:20:16;;;;;;;52.65;29.07;;;;;;;5.20;91.55;96886.50;1712368;82;21448;-59
2022/01/04 06:22:42;;;;;;;36.65;22.07;;;;;;;5.20;91.61;96878.45;1733457;82;21481;-58
2022/01/04 06:25:11;;;;;;;32.00;18.80;;;;;;;5.13;91.62;96884.67;1707616;83;20850;-58
2022/01/04 06:27:37;;;;;;;24.57;17.85;;;;;;;5.10;92.05;96882.50;1729080;82;21156;-59
2022/01/04 06:30:05;;;;;;;25.57;17.62;;;;;;;5.08;92.04;96877.95;1733232;82;20924;-59
2022/01/04 06:32:31;;;;;;;31.93;19.42;;;;;;;5.06;91.92;96881.45;1725630;82;21087;-58
2022/01/04 06:34:57;;;;;;;32.20;22.15;;;;;;;5.05;91.59;96881.99;1737291;82;20928;-59
2022/01/04 06:37:23;;;;;;;40.83;21.02;;;;;;;5.08;91.76;96876.61;1722541;82;20970;-56
2022/01/04 06:39:49;;;;;;;40.30;23.42;;;;;;;5.02;92.27;96873.66;1712673;83;21545;-56
2022/01/04 06:42:14;;;;;;;35.33;21.45;;;;;;;5.00;91.83;96864.54;1725711;82;20845;-56
2022/01/04 06:44:41;;;;;;;118.97;49.65;;;;;;;4.98;91.88;96860.52;1737119;82;20900;-56
2022/01/04 06:47:07;;;;;;;41.02;23.15;;;;;;;4.91;92.05;96855.43;1716964;82;20999;-56
2022/01/04 06:49:33;;;;;;;34.20;21.75;;;;;;;4.86;91.95;96851.94;1773312;80;20851;-56
2022/01/04 06:51:59;;;;;;;44.42;29.10;;;;;;;4.85;92.12;96849.80;1741433;80;21535;-56
2022/01/04 06:54:25;;;;;;;40.60;26.10;;;;;;;4.78;92.17;96849.27;1737378;82;21016;-56
2022/01/04 06:56:51;;;;;;;54.73;31.00;;;;;;;4.73;92.50;96851.44;1710686;82;20900;-56
2022/01/04 06:59:17;;;;;;;76.60;41.23;;;;;;;4.71;92.79;96853.59;1725121;82;21567;-56
2022/01/04 07:01:43;;;;;;;49.30;32.75;;;;;;;4.67;92.89;96853.84;1707547;82;21031;-56
2022/01/04 07:04:09;;;;;;;47.58;31.40;;;;;;;4.65;92.74;96851.17;1713085;82;21535;-56
2022/01/04 07:06:35;;;;;;;52.98;31.00;;;;;;;4.66;92.88;96845.53;1701517;84;20973;-56
2022/01/04 07:09:01;;;;;;;52.20;32.75;;;;;;;4.70;92.92;96847.13;1719118;80;20896;-56
2022/01/04 07:11:27;;;;;;;47.50;28.90;;;;;;;4.72;93.23;96843.12;1709504;82;20896;-56
2022/01/04 07:13:53;;;;;;;51.05;32.35;;;;;;;4.82;92.85;96838.27;1707647;84;20956;-56
2022/01/04 07:16:18;;;;;;;50.28;31.70;;;;;;;4.82;92.85;96838.27;1707492;82;21579;-56
2022/01/04 07:18:49;;;;;;;70.03;43.50;;;;;;;4.87;93.11;96833.41;1711274;82;21630;-56
2022/01/04 07:21:16;;;;;;;68.72;40.85;;;;;;;4.92;92.80;96824.02;1666703;85;21426;-58
2022/01/04 07:23:43;;;;;;;60.80;35.83;;;;;;;4.95;92.59;96818.90;1713050;82;21037;-59
2022/01/04 07:26:14;;;;;;;56.40;37.10;;;;;;;4.98;92.71;96813.55;1722509;81;21013;-58
2022/01/04 07:28:45;;;;;;;51.75;34.67;;;;;;;4.97;92.41;96811.40;1710696;82;21084;-59
2022/01/04 07:31:12;;;;;;;51.10;35.65;;;;;;;4.99;93.22;96804.41;1710980;82;21504;-59
2022/01/04 07:33:38;;;;;;;55.12;36.55;;;;;;;5.00;92.81;96807.36;1696106;82;21004;-56
2022/01/04 07:36:06;;;;;;;57.23;36.17;;;;;;;5.01;92.42;96786.14;1668489;85;21009;-56
2022/01/04 07:38:33;;;;;;;51.50;34.70;;;;;;;5.01;92.91;96772.72;1724903;82;21016;-56
2022/01/04 07:40:59;;;;;;;52.03;36.48;;;;;;;5.02;92.34;96779.69;1715298;82;21043;-56
2022/01/04 07:43:25;;;;;;;37.48;24.98;;;;;;;5.07;92.20;96775.66;1713267;82;20913;-56
2022/01/04 07:45:52;;;;;;;36.03;24.70;;;;;;;5.12;92.74;96774.81;1730817;82;21008;-56
2022/01/04 07:48:21;;;;;;;33.73;22.35;;;;;;;5.12;92.26;96773.47;1654060;85;21017;-56
2022/01/04 07:50:47;;;;;;;48.52;30.88;;;;;;;5.10;92.28;96772.41;1664366;84;21206;-56
2022/01/04 07:53:14;;;;;;;53.98;30.17;;;;;;;5.12;92.19;96774.81;1729155;82;22219;-56
2022/01/04 07:55:40;;;;;;;63.55;39.90;;;;;;;5.13;92.70;96757.62;1716280;82;21047;-56
2022/01/04 07:58:06;;;;;;;57.65;35.35;;;;;;;5.11;92.65;96751.19;1669389;85;21032;-56
2022/01/04 08:00:32;;;;;;;58.42;34.00;;;;;;;5.06;93.18;96744.52;1715953;82;20877;-56
2022/01/04 08:02:58;;;;;;;87.60;51.50;;;;;;;5.09;92.66;96752.01;1725273;82;20890;-56
2022/01/04 08:05:24;;;;;;;87.78;47.62;;;;;;;5.12;92.79;96749.30;1668489;85;21481;-56
2022/01/04 08:07:51;;;;;;;66.33;39.27;;;;;;;5.19;92.76;96751.96;1708861;82;21658;-56
2022/01/04 08:10:18;;;;;;;65.60;39.53;;;;;;;5.20;92.67;96748.73;1716564;82;21010;-56
2022/01/04 08:12:44;;;;;;;58.02;38.17;;;;;;;5.18;92.92;96734.78;1719396;82;21464;-56
2022/01/04 08:15:10;;;;;;;70.10;43.20;;;;;;;5.16;92.75;96728.35;1711971;82;20882;-56
2022/01/04 08:17:36;;;;;;;85.35;50.30;;;;;;;5.19;92.93;96707.65;1718294;82;21412;-56
2022/01/04 08:20:03;;;;;;;76.77;45.12;;;;;;;5.19;92.90;96710.88;1718378;82;21591;-56
2022/01/04 08:22:32;;;;;;;94.87;57.15;;;;;;;5.23;92.97;96710.06;1727485;82;21014;-56
2022/01/04 08:25:01;;;;;;;89.17;54.42;;;;;;;5.20;92.86;96706.56;1716218;82;20994;-56
2022/01/04 08:27:27;;;;;;;93.45;53.92;;;;;;;5.24;92.96;96693.41;1715255;82;21103;-56
2022/01/04 08:29:54;;;;;;;138.70;71.40;;;;;;;5.24;92.98;96682.66;1718689;82;21412;-56
2022/01/04 08:32:19;;;;;;;168.52;95.83;;;;;;;5.25;92.98;96680.23;1713932;82;21033;-56
2022/01/04 08:34:45;;;;;;;156.78;88.25;;;;;;;5.24;93.13;96674.06;1701731;82;20983;-56
2022/01/04 08:37:11;;;;;;;101.97;56.92;;;;;;;5.32;93.11;96666.77;1720484;82;20845;-56
2022/01/04 08:39:38;;;;;;;193.70;81.82;;;;;;;5.39;93.04;96659.74;1720319;82;20913;-56
2022/01/04 08:42:04;;;;;;;169.68;84.30;;;;;;;5.46;93.10;96658.06;1720991;82;21131;-56
2022/01/04 08:44:30;;;;;;;106.95;65.42;;;;;;;5.45;92.89;96653.23;1713767;82;21040;-56
2022/01/04 08:46:56;;;;;;;145.35;78.85;;;;;;;5.49;92.87;96642.20;1718518;82;20893;-56
2022/01/04 08:49:22;;;;;;;119.75;71.55;;;;;;;5.53;93.50;96633.83;1723424;82;20929;-56
2022/01/04 08:51:48;;;;;;;92.22;56.15;;;;;;;5.57;92.97;96634.88;1720970;82;20874;-56
2022/01/04 08:54:14;;;;;;;74.58;45.28;;;;;;;5.63;92.92;96630.25;1718022;82;22277;-56
2022/01/04 08:56:41;;;;;;;82.10;44.58;;;;;;;5.66;93.20;96631.85;1711956;82;21067;-56
2022/01/04 08:59:08;;;;;;;76.72;44.63;;;;;;;5.67;93.04;96624.59;1721058;82;21052;-56
2022/01/04 09:01:35;;;;;;;69.05;40.85;;;;;;;5.72;93.01;96623.73;1712445;82;20991;-57
2022/01/04 09:04:01;;;;;;;116.15;76.60;;;;;;;5.76;93.01;96613.48;1723242;82;21442;-56
2022/01/04 09:06:28;;;;;;;73.75;45.80;;;;;;;5.73;92.78;96611.92;1709589;82;21386;-56
2022/01/04 09:08:57;;;;;;;68.65;40.60;;;;;;;5.78;92.88;96613.20;1715715;82;20990;-56
2022/01/04 09:11:24;;;;;;;87.40;44.20;;;;;;;5.83;92.92;96610.48;1725286;82;21052;-56
2022/01/04 09:13:51;;;;;;;102.50;53.70;;;;;;;5.87;92.83;96606.12;1735067;82;21049;-56
2022/01/04 09:18:43;;;;;;;77.55;46.13;;;;;;;6.02;92.75;96588.53;1718464;82;21576;-56
2022/01/04 09:21:21;;;;;;;74.80;44.63;;;;;;;6.06;93.19;96588.20;1724536;82;21032;-56
2022/01/04 09:23:48;;;;;;;72.97;47.65;;;;;;;6.12;92.89;96583.59;1727782;82;21327;-56
2022/01/04 09:26:15;;;;;;;80.50;53.08;;;;;;;6.13;93.03;96577.12;1723409;82;21166;-56
2022/01/04 09:28:42;;;;;;;79.20;53.90;;;;;;;6.16;92.81;96565.26;1723500;82;21438;-56
2022/01/04 09:31:08;;;;;;;117.90;67.17;;;;;;;6.15;92.65;96560.97;1713306;82;21499;-56
2022/01/04 09:33:34;;;;;;;99.85;64.05;;;;;;;6.17;92.63;96547.23;1718017;82;20826;-56
2022/01/04 09:36:00;;;;;;;153.42;94.97;;;;;;;6.22;92.54;96545.81;1725062;82;21457;-57
2022/01/04 09:38:26;;;;;;;112.68;63.55;;;;;;;6.19;93.20;96539.13;1703044;82;20913;-56
2022/01/04 09:40:54;;;;;;;114.30;63.35;;;;;;;6.22;92.92;96534.50;1712611;82;21049;-56
2022/01/04 09:43:20;;;;;;;101.85;58.60;;;;;;;6.31;92.92;96531.98;1701352;82;21765;-56
2022/01/04 09:45:47;;;;;;;90.75;57.58;;;;;;;6.37;92.75;96526.00;1676957;85;21017;-56
2022/01/04 09:48:13;;;;;;;92.72;58.80;;;;;;;6.43;92.72;96522.96;1711983;82;21056;-56
2022/01/04 09:50:41;;;;;;;96.50;57.90;;;;;;;6.54;92.78;96521.48;1716126;82;21024;-57
2022/01/04 09:53:07;;;;;;;109.17;61.37;;;;;;;6.64;92.73;96509.22;1727199;82;21046;-56
2022/01/04 09:55:34;;;;;;;99.10;57.93;;;;;;;6.75;93.38;96509.32;1694290;82;21606;-56
2022/01/04 09:58:00;;;;;;;106.22;64.53;;;;;;;6.84;93.21;96507.59;1726933;82;21059;-57
2022/01/04 10:00:26;;;;;;;113.88;63.35;;;;;;;6.96;92.90;96498.52;1671145;85;21453;-56
2022/01/04 10:02:53;;;;;;;114.35;67.35;;;;;;;7.11;92.79;96498.83;1720001;82;20863;-57
2022/01/04 10:05:23;;;;;;;94.32;52.73;;;;;;;7.22;92.74;96486.78;1716153;82;21052;-56
2022/01/04 10:08:02;;;;;;;44.35;24.70;;;;;;;7.33;92.80;96484.71;1715992;82;21784;-56
2022/01/04 10:10:31;;;;;;;18.37;10.63;;;;;;;7.44;92.70;96467.84;1697253;82;21017;-56
2022/01/04 10:13:03;;;;;;;20.68;11.63;;;;;;;7.57;92.14;96458.96;1726029;82;22055;-56
2022/01/04 10:15:47;;;;;;;24.43;11.78;;;;;;;7.72;92.04;96456.53;1727346;82;21012;-57
2022/01/04 10:18:18;;;;;;;20.37;12.30;;;;;;;7.82;91.16;96447.69;1719955;82;21480;-59
2022/01/04 10:20:47;;;;;;;16.30;9.98;;;;;;;7.95;91.10;96441.23;1725471;82;22341;-59
2022/01/04 10:23:17;;;;;;;16.12;6.67;;;;;;;8.05;90.83;96435.66;1720368;82;20977;-59
2022/01/04 10:25:44;;;;;;;15.83;6.67;;;;;;;8.15;90.72;96432.19;1710753;82;21029;-56
2022/01/04 10:28:11;;;;;;;14.98;8.25;;;;;;;8.26;89.90;96428.72;1724716;82;21012;-57
2022/01/04 10:30:42;;;;;;;10.93;5.90;;;;;;;8.39;89.66;96423.88;1726442;82;21084;-57
2022/01/04 10:33:16;;;;;;;29.90;13.13;;;;;;;8.53;89.78;96423.83;1662187;86;21534;-56
2022/01/04 10:35:48;;;;;;;10.95;6.53;;;;;;;8.67;89.42;96433.24;1652376;84;21026;-57
2022/01/04 10:38:29;;;;;;;19.20;10.08;;;;;;;8.76;87.28;96424.66;1733550;82;21019;-56
2022/01/04 10:41:05;;;;;;;19.77;11.83;;;;;;;8.86;88.24;96433.86;1717854;82;21010;-56
2022/01/04 10:43:40;;;;;;;15.90;8.10;;;;;;;8.93;87.91;96429.38;1736721;82;21417;-56
2022/01/04 10:46:06;;;;;;;14.53;7.90;;;;;;;9.01;86.69;96436.20;1739171;82;21124;-56
2022/01/04 10:48:36;;;;;;;36.17;16.25;;;;;;;9.03;87.09;96432.63;1716578;82;20952;-57
2022/01/04 10:51:10;;;;;;;34.58;16.82;;;;;;;9.07;87.62;96430.12;1718830;82;21064;-57
2022/01/04 10:53:39;;;;;;;38.48;18.90;;;;;;;9.11;87.70;96422.98;1703800;82;21020;-56
2022/01/04 10:56:08;;;;;;;38.00;18.40;;;;;;;9.18;87.75;96425.26;1723755;82;21504;-56
2022/01/04 10:58:41;;;;;;;47.62;20.08;;;;;;;9.19;87.62;96404.67;1724367;82;21238;-56
2022/01/04 11:01:10;;;;;;;21.23;10.95;;;;;;;9.23;86.72;96403.52;1719215;82;20968;-56
2022/01/04 11:03:41;;;;;;;11.95;6.62;;;;;;;9.23;86.72;96403.52;1716632;82;21028;-56
2022/01/04 11:06:24;;;;;;;41.70;20.57;;;;;;;9.20;86.96;96400.06;1704506;82;21006;-56
2022/01/04 11:08:50;;;;;;;13.05;7.22;;;;;;;9.26;87.02;96407.74;1716803;82;21058;-57
2022/01/04 11:11:16;;;;;;;8.63;4.65;;;;;;;9.26;86.22;96398.84;1713291;82;22255;-56
2022/01/04 11:13:42;;;;;;;3.67;2.55;;;;;;;9.22;85.29;96390.53;1726981;82;21004;-56
2022/01/04 11:16:08;;;;;;;10.95;5.75;;;;;;;9.20;85.07;96409.53;1712503;82;21046;-56
2022/01/04 11:18:40;;;;;;;27.10;14.98;;;;;;;9.27;83.67;96398.52;1728178;82;21080;-56
2022/01/04 11:21:05;;;;;;;6.55;4.35;;;;;;;9.24;84.13;96395.66;1735328;82;21048;-56
2022/01/04 11:23:32;;;;;;;7.45;5.83;;;;;;;9.26;83.44;96406.95;1732744;82;21431;-56
2022/01/04 11:25:59;;;;;;;5.97;3.75;;;;;;;9.26;83.02;96404.24;1723583;82;21060;-57
2022/01/04 11:28:26;;;;;;;5.22;3.12;;;;;;;9.25;82.91;96386.44;1716869;82;21024;-56
2022/01/04 11:31:20;;;;;;;8.98;5.37;;;;;;;9.25;82.21;96393.19;1724285;82;21533;-56
2022/01/04 11:34:12;;;;;;;12.93;5.10;;;;;;;9.19;82.93;96379.00;1722163;82;21024;-56
2022/01/04 11:36:43;;;;;;;14.83;9.20;;;;;;;9.24;82.12;96376.73;1709739;82;22242;-57
2022/01/04 11:39:30;;;;;;;10.72;4.20;;;;;;;9.16;82.10;96369.38;1714708;82;21054;-56
2022/01/04 11:41:56;;;;;;;7.58;3.05;;;;;;;9.20;81.09;96362.23;1716889;82;21014;-56